Latest Weather Observations for Rocky Gully South

IDW60801

Issued at 10:02 pm WST Sunday 21 December 2014 (issued every 30 minutes, with the page automatically refreshed every 10 minutes)

About weather observations | Map of weather stations | Latest weather observations for WA | Other Formats
Station Details ID: 009964 Name: ROCKY GULLY Lat: -34.57 Lon: 117.01 Height: 250.0 m
Data from the previous 72 hours. | See also: Recent months at Rocky Gully South
Date/Time
WST
Temp
°C
App
Temp
°C
Dew
Point
Rel
Hum
%
Delta-T
°C
Wind Press
QNH
hPa
Press
MSL
hPa
Rain
since 9 am
mm
Dir
 
Spd
km/h
Gust
km/h
Spd
kts
Gust
kts
21/10:00pm 10.6 8.8 7.8 83 1.4 SE 7 11 4 6 - - 0.0
21/09:30pm 11.2 9.1 8.2 82 1.5 SSE 9 13 5 7 - - 0.0
21/09:00pm 11.4 9.6 8.1 80 1.6 SE 7 11 4 6 - - 0.0
21/08:30pm 12.0 10.2 7.9 76 2.0 SE 7 11 4 6 - - 0.0
21/08:00pm 13.1 10.9 8.0 71 2.6 SSE 9 15 5 8 - - 0.0
21/07:30pm 13.9 11.7 7.9 67 3.0 SSE 9 13 5 7 - - 0.0
21/07:00pm 15.0 12.0 7.8 62 3.6 SSE 13 22 7 12 - - 0.0
21/06:30pm 16.1 13.2 8.3 60 4.0 SSE 13 20 7 11 - - 0.0
21/06:00pm 17.2 14.4 8.6 57 4.5 SSE 13 20 7 11 - - 0.0
21/05:30pm 17.7 14.5 8.3 54 4.9 SSE 15 22 8 12 - - 0.0
21/05:00pm 18.2 15.1 8.7 54 5.0 SSE 15 24 8 13 - - 0.0
21/04:30pm 18.3 14.5 7.7 50 5.5 S 17 28 9 15 - - 0.0
21/04:00pm 19.4 16.2 8.4 49 5.8 SSE 15 22 8 12 - - 0.0
21/03:30pm 19.0 15.5 8.9 52 5.3 SSE 17 26 9 14 - - 0.0
21/03:00pm 18.9 15.3 8.3 50 5.5 S 17 26 9 14 - - 0.0
21/02:30pm 19.4 15.2 8.4 49 5.8 S 20 28 11 15 - - 0.0
21/02:00pm 18.3 14.0 8.0 51 5.3 SE 20 28 11 15 - - 0.0
21/01:30pm 18.5 14.9 8.5 52 5.2 S 17 28 9 15 - - 0.0
21/01:00pm 18.4 15.1 8.1 51 5.3 S 15 26 8 14 - - 0.0
21/12:30pm 18.1 14.1 8.1 52 5.2 S 19 30 10 16 - - 0.0
21/12:00pm 17.9 14.4 8.7 55 4.8 S 17 30 9 16 - - 0.0
21/11:30am 17.6 14.4 8.5 55 4.7 S 15 22 8 12 - - 0.0
21/11:00am 18.3 15.1 8.6 53 5.1 SE 15 28 8 15 - - 0.0
21/10:30am 16.7 13.4 8.1 57 4.4 SSE 15 22 8 12 - - 0.0
21/10:00am 16.0 12.9 8.7 62 3.8 SSE 15 24 8 13 - - 0.0
21/09:30am 15.1 12.2 9.7 70 2.8 SSE 15 20 8 11 - - 0.0
21/09:00am 14.1 11.2 9.5 74 2.4 SSE 15 24 8 13 - - 0.8
21/08:30am 13.8 11.4 10.0 78 2.0 SSE 13 26 7 14 - - 0.8
21/08:00am 13.3 11.3 10.3 82 1.6 SSE 11 17 6 9 - - 0.8
21/07:30am 12.6 10.2 10.1 85 1.3 S 13 22 7 12 - - 0.8
21/07:00am 12.5 10.4 11.1 91 0.7 SSE 13 20 7 11 - - 0.8
21/06:30am 12.4 10.3 11.3 93 0.6 S 13 19 7 10 - - 0.8
21/06:00am 12.3 10.2 11.2 93 0.6 S 13 20 7 11 - - 0.8
21/05:30am 12.4 10.3 11.3 93 0.6 SSE 13 20 7 11 - - 0.4
21/05:00am 12.4 10.0 11.3 93 0.6 S 15 26 8 14 - - 0.4
21/04:30am 12.6 9.8 11.5 93 0.6 S 17 24 9 13 - - 0.4
21/04:00am 12.7 10.7 11.6 93 0.6 SSE 13 22 7 12 - - 0.4
21/03:30am 12.9 11.0 11.8 93 0.6 S 13 20 7 11 - - 0.4
21/03:00am 12.9 10.2 11.8 93 0.6 S 17 26 9 14 - - 0.4
21/02:30am 13.0 10.4 11.9 93 0.6 S 17 28 9 15 - - 0.4
21/02:00am 13.3 11.1 12.2 93 0.6 S 15 28 8 15 - - 0.2
21/01:30am 13.4 11.3 12.3 93 0.6 S 15 28 8 15 - - 0.2
21/01:00am 13.5 11.0 12.2 92 0.7 SSE 17 24 9 13 - - 0.2
21/12:30am 13.6 11.5 12.3 92 0.7 S 15 26 8 14 - - 0.2
21/12:00am 13.6 11.5 12.3 92 0.7 S 15 20 8 11 - - 0.0
 
Date/Time
WST
Temp
°C
App
Temp
°C
Dew
Point
Rel
Hum
%
Delta-T
°C
Wind Press
QNH
hPa
Press
MSL
hPa
Rain
since 9 am
mm
Dir
 
Spd
km/h
Gust
km/h
Spd
kts
Gust
kts
20/11:30pm 13.6 11.9 12.3 92 0.7 SSE 13 17 7 9 - - 0.0
20/11:00pm 13.6 11.8 12.2 91 0.8 SSE 13 26 7 14 - - 0.0
20/10:30pm 13.8 11.9 11.8 88 1.1 SSE 13 17 7 9 - - 0.0
20/10:00pm 14.7 12.3 11.5 81 1.7 SSE 15 28 8 15 - - 0.0
20/09:30pm 15.3 12.5 11.3 77 2.2 SSE 17 28 9 15 - - 0.0
20/09:00pm 15.3 12.9 11.5 78 2.1 SSE 15 24 8 13 - - 0.0
20/08:30pm 15.2 13.2 11.6 79 2.0 SSE 13 26 7 14 - - 0.0
20/08:00pm 15.4 12.2 11.4 77 2.2 SSE 19 30 10 16 - - 0.0
20/07:30pm 15.8 12.9 11.0 73 2.6 S 17 28 9 15 - - 0.0
20/07:00pm 16.0 12.8 11.2 73 2.6 S 19 32 10 17 - - 0.0
20/06:30pm 16.2 12.8 11.2 72 2.7 S 20 33 11 18 - - 0.0
20/06:00pm 16.6 13.2 11.1 70 3.0 S 20 35 11 19 - - 0.0
20/05:30pm 17.4 13.9 11.0 66 3.5 S 20 33 11 18 - - 0.0
20/05:00pm 19.3 16.0 10.8 58 4.7 SSE 19 30 10 16 - - 0.0
20/04:30pm 18.6 13.6 9.7 56 4.8 S 26 44 14 24 - - 0.0
20/04:00pm 19.0 15.5 10.8 59 4.5 SSE 20 32 11 17 - - 0.0
20/03:30pm 18.5 14.2 10.6 60 4.3 S 24 39 13 21 - - 0.0
20/03:00pm 18.4 13.5 10.0 58 4.5 SSE 26 41 14 22 - - 0.0
20/02:30pm 18.2 13.0 10.3 60 4.3 SSE 28 46 15 25 - - 0.0
20/02:00pm 18.8 13.8 10.9 60 4.3 S 28 46 15 25 - - 0.0
20/01:59pm 18.6 13.4 10.4 59 4.5 S 28 46 15 25 - - 0.0
20/01:30pm 18.8 13.8 11.1 61 4.2 S 28 44 15 24 - - 0.0
20/01:08pm 18.0 13.1 11.3 65 3.7 S 28 56 15 30 - - 0.0
20/01:00pm 19.7 16.9 14.3 71 3.2 S 22 41 12 22 - - 0.0
20/12:30pm 17.6 14.7 13.9 79 2.1 S 22 41 12 22 - - 0.0
20/12:00pm 16.4 14.0 14.4 88 1.2 S 20 33 11 18 - - 0.0
20/11:30am 16.0 13.6 14.4 90 0.9 S 20 37 11 20 - - 0.0
20/11:00am 16.3 14.1 14.8 91 0.9 S 20 35 11 19 - - 0.0
20/10:30am 16.8 14.8 15.0 89 1.1 S 19 33 10 18 - - 0.0
20/10:00am 17.0 14.7 14.6 86 1.4 S 20 32 11 17 - - 0.0
20/09:30am 17.6 15.5 14.7 83 1.7 S 19 32 10 17 - - 0.0
20/09:00am 17.7 15.6 14.8 83 1.7 S 19 30 10 16 - - 0.0
20/08:30am 18.0 16.3 14.7 81 1.9 S 17 24 9 13 - - 0.0
20/08:00am 18.4 17.1 14.7 79 2.2 S 15 26 8 14 - - 0.0
20/07:30am 17.3 15.9 14.4 83 1.7 S 15 22 8 12 - - 0.0
20/07:00am 16.2 14.8 14.4 89 1.0 SSE 15 20 8 11 - - 0.0
20/06:30am 15.6 15.2 14.0 90 0.9 SSE 9 15 5 8 - - 0.0
20/06:00am 15.3 14.7 13.5 89 1.0 SSE 9 13 5 7 - - 0.0
20/05:30am 14.9 14.2 13.1 89 1.0 SE 9 15 5 8 - - 0.0
20/05:00am 14.9 14.4 12.8 87 1.2 SSE 7 13 4 7 - - 0.0
20/04:30am 15.1 14.3 13.0 87 1.2 SSE 9 13 5 7 - - 0.0
20/04:00am 14.9 14.4 12.6 86 1.3 ESE 7 11 4 6 - - 0.0
20/03:30am 14.8 14.2 12.3 85 1.4 ESE 7 13 4 7 - - 0.0
20/03:00am 15.1 14.5 12.2 83 1.6 SSE 7 11 4 6 - - 0.0
20/02:30am 15.3 14.6 12.1 81 1.8 SE 7 11 4 6 - - 0.0
20/02:00am 15.5 14.7 11.7 78 2.1 SE 7 11 4 6 - - 0.0
20/01:30am 15.9 15.3 11.7 76 2.3 SSE 6 9 3 5 - - 0.0
20/01:00am 16.3 15.1 11.7 74 2.5 SE 9 15 5 8 - - 0.0
20/12:30am 16.6 15.9 11.5 72 2.8 ENE 6 11 3 6 - - 0.0
20/12:00am 16.3 15.8 10.8 70 3.0 SE 4 15 2 8 - - 0.0
 
Date/Time
WST
Temp
°C
App
Temp
°C
Dew
Point
Rel
Hum
%
Delta-T
°C
Wind Press
QNH
hPa
Press
MSL
hPa
Rain
since 9 am
mm
Dir
 
Spd
km/h
Gust
km/h
Spd
kts
Gust
kts
19/11:30pm 16.3 15.4 10.6 69 3.1 ENE 6 9 3 5 - - 0.0
19/11:00pm 16.1 16.2 10.2 68 3.1 CALM 0 6 0 3 - - 0.0
19/10:30pm 16.8 15.6 10.4 66 3.4 SE 7 15 4 8 - - 0.0
19/10:00pm 17.1 16.2 11.4 69 3.1 SE 7 11 4 6 - - 0.0
19/09:30pm 17.9 16.8 12.1 69 3.2 SSE 9 17 5 9 - - 0.0
19/09:00pm 18.7 17.8 12.5 67 3.5 SE 9 17 5 9 - - 0.0
19/08:30pm 19.6 18.4 12.8 65 3.9 SSE 11 17 6 9 - - 0.0
19/08:00pm 20.9 19.2 12.6 59 4.7 SSE 13 20 7 11 - - 0.0
19/07:30pm 22.5 20.6 11.9 51 6.0 SSE 13 20 7 11 - - 0.0
19/07:00pm 24.3 22.0 10.6 42 7.7 SSE 13 22 7 12 - - 0.0
19/06:30pm 26.2 23.0 10.0 36 9.1 SSE 17 28 9 15 - - 0.0
19/06:00pm 27.6 24.0 9.9 33 10.0 SSE 19 30 10 16 - - 0.0
19/05:30pm 28.5 24.7 9.2 30 10.8 SSE 19 35 10 19 - - 0.0
19/05:00pm 29.2 25.4 9.8 30 11.0 SSE 20 35 11 19 - - 0.0
19/04:30pm 30.0 26.3 9.5 28 11.6 SSE 19 35 10 19 - - 0.0
19/04:00pm 30.8 27.0 9.1 26 12.3 SE 19 35 10 19 - - 0.0
19/03:30pm 30.5 26.5 10.5 29 11.5 S 22 37 12 20 - - 0.0
19/03:00pm 33.2 31.5 9.9 24 13.5 SSW 9 20 5 11 - - 0.0
19/02:30pm 33.8 30.0 1.6 13 16.4 ENE 11 22 6 12 - - 0.0
19/02:00pm 33.0 29.4 2.9 15 15.6 NNW 11 20 6 11 - - 0.0
19/01:30pm 32.1 28.0 2.2 15 15.2 ENE 13 26 7 14 - - 0.0
19/01:00pm 32.0 28.4 3.1 16 14.9 E 11 19 6 10 - - 0.0
19/12:30pm 31.1 27.2 3.2 17 14.3 NNE 13 22 7 12 - - 0.0
19/12:00pm 30.6 26.4 3.6 18 13.9 NNE 15 24 8 13 - - 0.0
19/11:30am 29.1 24.9 3.9 20 12.9 NE 15 24 8 13 - - 0.0
19/11:00am 28.6 24.6 4.8 22 12.4 NNE 15 24 8 13 - - 0.0
19/10:30am 28.1 24.3 3.7 21 12.4 E 13 19 7 10 - - 0.0
19/10:00am 27.5 23.8 4.5 23 11.8 NE 13 20 7 11 - - 0.0
19/09:30am 25.6 21.3 3.5 24 11.0 NNE 15 26 8 14 - - 0.0
19/09:00am 24.4 20.6 5.7 30 9.6 NE 15 28 8 15 - - 0.0
19/08:30am 21.4 18.7 9.0 45 6.7 NE 13 22 7 12 - - 0.0
19/08:00am 19.7 17.2 9.6 52 5.4 NE 13 19 7 10 - - 0.0
19/07:30am 17.4 15.3 9.6 60 4.1 NE 11 15 6 8 - - 0.0
19/07:00am 15.8 14.3 10.6 71 2.8 ENE 9 17 5 9 - - 0.0
19/06:30am 13.7 12.2 10.7 82 1.6 ENE 9 20 5 11 - - 0.0
19/06:00am 12.7 11.7 11.1 90 0.9 E 7 11 4 6 - - 0.0
19/05:30am 11.8 10.7 10.5 92 0.7 E 7 13 4 7 - - 0.0
19/05:00am 11.7 10.5 10.4 92 0.7 ENE 7 13 4 7 - - 0.0
19/04:30am 11.3 10.0 10.0 92 0.7 NE 7 13 4 7 - - 0.0
19/04:00am 10.3 9.3 8.9 91 0.7 ENE 4 7 2 4 - - 0.0
19/03:30am 10.6 9.6 9.0 90 0.8 NE 4 7 2 4 - - 0.0
19/03:00am 10.8 9.5 9.2 90 0.8 NE 6 9 3 5 - - 0.0
19/02:30am 11.0 10.5 9.3 89 0.9 E 2 7 1 4 - - 0.0
19/02:00am 10.9 10.0 9.2 89 0.9 ENE 4 9 2 5 - - 0.0
19/01:30am 11.2 9.9 9.3 88 1.0 ESE 6 9 3 5 - - 0.0
19/01:00am 11.5 10.1 9.4 87 1.1 E 7 11 4 6 - - 0.0
19/12:30am 11.5 10.2 9.2 86 1.2 E 6 9 3 5 - - 0.0
19/12:00am 11.7 10.8 9.3 85 1.2 E 4 7 2 4 - - 0.0
 
Date/Time
WST
Temp
°C
App
Temp
°C
Dew
Point
Rel
Hum
%
Delta-T
°C
Wind Press
QNH
hPa
Press
MSL
hPa
Rain
since 9 am
mm
Dir
 
Spd
km/h
Gust
km/h
Spd
kts
Gust
kts
18/11:30pm 12.2 11.0 9.6 84 1.3 ESE 6 9 3 5 - - 0.0
18/11:00pm 12.6 11.3 9.8 83 1.4 E 7 11 4 6 - - 0.0
18/10:30pm 13.0 11.9 10.0 82 1.6 ESE 6 9 3 5 - - 0.0

Other Formats:

Comma delimited format used in spreadsheet applications
http://www.bom.gov.au/fwo/IDW60801/IDW60801.94631.axf

JavaScript Object Notation format (JSON) in row-major order
http://www.bom.gov.au/fwo/IDW60801/IDW60801.94631.json